Time;durP1;ratioP1;P1;durP2;ratioP2;P2;SDS_P1;SDS_P2;PMS_P1;PMS_P2;Temp;Humidity;BMP_temperature;BMP_pressure;BME280_temperature;BME280_humidity;BME280_pressure;Samples;Min_cycle;Max_cycle;Signal;HPM_P1;HPM_P2
2023/07/08 00:00:20;;;;;;;4.87;3.47;;;21.90;98.40;;;;;;5031070;28;20252;-59
2023/07/08 00:02:47;;;;;;;6.20;3.67;;;21.90;98.60;;;;;;5031087;28;20639;-59
2023/07/08 00:05:16;;;;;;;5.77;3.87;;;21.90;98.90;;;;;;5034882;28;20264;-60
2023/07/08 00:07:44;;;;;;;4.27;3.87;;;21.90;99.00;;;;;;5026751;28;20210;-60
2023/07/08 00:10:17;;;;;;;6.43;3.77;;;21.90;99.00;;;;;;5034167;28;20618;-59
2023/07/08 00:12:45;;;;;;;6.67;4.47;;;21.90;99.00;;;;;;5033574;28;20222;-59
2023/07/08 00:15:12;;;;;;;8.03;4.40;;;21.80;99.00;;;;;;5031308;28;20202;-59
2023/07/08 00:17:40;;;;;;;7.43;5.57;;;21.80;99.50;;;;;;5032980;28;20640;-59
2023/07/08 00:20:17;;;;;;;4.43;3.97;;;21.80;99.90;;;;;;5026881;28;20799;-59
2023/07/08 00:22:46;;;;;;;7.10;3.40;;;21.70;99.90;;;;;;5034616;28;20847;-59
2023/07/08 00:25:15;;;;;;;6.87;4.30;;;21.60;99.90;;;;;;5034537;28;20218;-60
2023/07/08 00:27:42;;;;;;;5.53;4.90;;;21.50;99.90;;;;;;5033901;28;20289;-59
2023/07/08 00:30:20;;;;;;;4.53;3.70;;;21.50;99.90;;;;;;5024218;28;20210;-60
2023/07/08 00:32:53;;;;;;;5.97;4.13;;;21.40;99.90;;;;;;5034105;28;20615;-60
2023/07/08 00:35:33;;;;;;;4.97;4.50;;;21.40;99.90;;;;;;5034702;28;20210;-59
2023/07/08 00:38:02;;;;;;;4.80;4.30;;;21.50;99.90;;;;;;5034810;28;20260;-59
2023/07/08 00:40:30;;;;;;;7.67;4.47;;;21.50;99.90;;;;;;5033779;28;20869;-59
2023/07/08 00:42:59;;;;;;;7.70;4.53;;;21.40;99.90;;;;;;5033424;28;20241;-60
2023/07/08 00:45:41;;;;;;;7.30;4.90;;;21.20;99.90;;;;;;5034301;28;20194;-59
2023/07/08 00:48:17;;;;;;;8.13;5.10;;;21.20;99.90;;;;;;5034377;28;20280;-59
2023/07/08 00:50:44;;;;;;;4.90;4.40;;;21.20;99.90;;;;;;5034431;28;20301;-60
2023/07/08 00:53:25;;;;;;;5.67;4.20;;;21.20;99.90;;;;;;5032985;28;20707;-59
2023/07/08 00:55:55;;;;;;;4.87;3.83;;;21.20;99.90;;;;;;5034202;28;20205;-59
2023/07/08 00:58:24;;;;;;;9.73;4.03;;;21.20;99.90;;;;;;5033269;28;20249;-60
2023/07/08 01:00:56;;;;;;;4.40;3.30;;;21.10;99.90;;;;;;5034078;28;20673;-60
2023/07/08 01:03:27;;;;;;;5.50;3.70;;;21.20;99.90;;;;;;5034183;28;20226;-60
2023/07/08 01:05:59;;;;;;;6.97;3.77;;;21.10;99.90;;;;;;5033248;28;20202;-60
2023/07/08 01:08:28;;;;;;;7.50;3.63;;;21.20;99.90;;;;;;5033972;28;20213;-60
2023/07/08 01:11:01;;;;;;;4.80;4.30;;;21.10;99.90;;;;;;5033352;28;20669;-59
2023/07/08 01:13:29;;;;;;;5.33;4.20;;;21.10;99.90;;;;;;5033522;28;20751;-60
2023/07/08 01:15:56;;;;;;;5.90;3.97;;;21.10;99.90;;;;;;5033873;28;20194;-59
2023/07/08 01:18:26;;;;;;;5.87;3.63;;;21.10;99.90;;;;;;5032740;28;20202;-59
2023/07/08 01:20:55;;;;;;;6.07;3.77;;;21.10;99.90;;;;;;5033717;28;20245;-60
2023/07/08 01:23:24;;;;;;;5.80;3.70;;;21.10;99.90;;;;;;5033459;28;20314;-59
2023/07/08 01:25:51;;;;;;;5.53;3.27;;;21.10;99.90;;;;;;5033028;28;20622;-59
2023/07/08 01:28:18;;;;;;;5.63;4.00;;;21.10;99.90;;;;;;5033699;28;20191;-60
2023/07/08 01:30:46;;;;;;;6.67;4.13;;;21.10;99.90;;;;;;5028679;28;20226;-59
2023/07/08 01:33:19;;;;;;;6.60;3.87;;;21.10;99.90;;;;;;5033119;28;20226;-60
2023/07/08 01:35:49;;;;;;;6.67;3.90;;;21.10;99.90;;;;;;5033595;28;20272;-59
2023/07/08 01:38:19;;;;;;;10.30;3.83;;;20.90;99.90;;;;;;5033596;28;20198;-59
2023/07/08 01:40:53;;;;;;;5.17;4.67;;;20.90;99.90;;;;;;5031426;28;20207;-59
2023/07/08 01:43:20;;;;;;;4.23;3.83;;;21.00;99.90;;;;;;5032267;28;20280;-59
2023/07/08 01:45:49;;;;;;;7.93;4.13;;;21.10;99.90;;;;;;5033389;28;20195;-59
2023/07/08 01:48:19;;;;;;;8.60;4.50;;;21.20;99.90;;;;;;5032457;28;20203;-59
2023/07/08 01:50:51;;;;;;;4.87;3.67;;;21.30;99.90;;;;;;5030982;28;20203;-59
2023/07/08 01:53:22;;;;;;;4.37;3.97;;;21.40;99.90;;;;;;5032120;28;20222;-59
2023/07/08 01:55:51;;;;;;;4.40;3.97;;;21.40;99.90;;;;;;5032697;28;20676;-60
2023/07/08 01:58:18;;;;;;;7.77;3.67;;;21.40;99.90;;;;;;5033149;28;20248;-59
2023/07/08 02:00:48;;;;;;;9.20;4.17;;;21.40;99.90;;;;;;5033454;28;20264;-59
2023/07/08 02:03:15;;;;;;;3.23;3.00;;;21.50;99.90;;;;;;5032819;28;20214;-59
2023/07/08 02:05:42;;;;;;;6.33;4.23;;;21.40;99.90;;;;;;5030780;28;20264;-59
2023/07/08 02:08:09;;;;;;;5.93;3.30;;;21.50;99.90;;;;;;5031885;28;20203;-59
2023/07/08 02:10:37;;;;;;;4.97;3.90;;;21.50;99.90;;;;;;5032813;28;20672;-60
2023/07/08 02:13:06;;;;;;;9.00;4.47;;;21.50;99.90;;;;;;5032356;28;20282;-59
2023/07/08 02:15:33;;;;;;;5.47;4.33;;;21.50;99.90;;;;;;5026027;28;20680;-59
2023/07/08 02:18:00;;;;;;;5.73;4.50;;;21.40;99.90;;;;;;5031089;28;20691;-59
2023/07/08 02:20:27;;;;;;;6.47;4.40;;;21.40;99.90;;;;;;5031521;28;20202;-59
2023/07/08 02:22:54;;;;;;;5.60;3.70;;;21.40;99.90;;;;;;5032318;28;20305;-60
2023/07/08 02:25:21;;;;;;;4.17;3.77;;;21.40;99.90;;;;;;5032258;28;20207;-59
2023/07/08 02:27:48;;;;;;;10.27;4.10;;;21.30;99.90;;;;;;5032152;28;20275;-59
2023/07/08 02:30:16;;;;;;;4.20;3.80;;;21.30;99.90;;;;;;5032545;28;20279;-59
2023/07/08 02:32:56;;;;;;;6.83;5.00;;;21.30;99.90;;;;;;5030261;28;20226;-59
2023/07/08 02:35:24;;;;;;;9.13;4.97;;;21.30;99.90;;;;;;5032145;28;20206;-59
2023/07/08 02:37:51;;;;;;;5.63;4.27;;;21.30;99.90;;;;;;5032310;28;20725;-59
2023/07/08 02:40:18;;;;;;;8.33;4.97;;;21.30;99.90;;;;;;5032586;28;20203;-59
2023/07/08 02:42:45;;;;;;;7.50;5.40;;;21.30;99.90;;;;;;5032139;28;20223;-60
2023/07/08 02:45:13;;;;;;;9.70;4.67;;;21.30;99.90;;;;;;5031134;28;20607;-59
2023/07/08 02:47:41;;;;;;;10.97;5.33;;;21.20;99.90;;;;;;5031661;28;20229;-59
2023/07/08 02:50:09;;;;;;;6.03;4.80;;;21.20;99.90;;;;;;5012364;28;20198;-59
2023/07/08 02:52:36;;;;;;;8.97;4.93;;;21.20;99.90;;;;;;5012272;28;20285;-59
2023/07/08 02:55:04;;;;;;;12.73;5.57;;;21.20;99.90;;;;;;5012523;28;20283;-59
2023/07/08 02:57:31;;;;;;;10.10;5.57;;;21.10;99.90;;;;;;5028464;28;20202;-60
2023/07/08 02:59:58;;;;;;;10.93;5.50;;;21.10;99.90;;;;;;5027815;28;20194;-59
2023/07/08 03:02:25;;;;;;;5.13;4.03;;;21.00;99.90;;;;;;5031448;28;20214;-60
2023/07/08 03:04:54;;;;;;;4.63;4.20;;;20.90;99.90;;;;;;5030804;28;20202;-59
2023/07/08 03:07:21;;;;;;;4.60;4.20;;;20.90;99.90;;;;;;5031665;28;20714;-60
2023/07/08 03:09:48;;;;;;;7.40;4.77;;;20.90;99.90;;;;;;5030529;28;20669;-59
2023/07/08 03:12:15;;;;;;;5.60;5.10;;;20.90;99.90;;;;;;5031299;28;20230;-59
2023/07/08 03:14:42;;;;;;;5.30;3.53;;;20.90;99.90;;;;;;5031787;28;20664;-59
2023/07/08 03:17:09;;;;;;;5.30;4.53;;;20.80;99.90;;;;;;5028631;28;20609;-59
2023/07/08 03:19:36;;;;;;;6.80;5.10;;;20.70;99.90;;;;;;5028325;28;20202;-59
2023/07/08 03:22:06;;;;;;;4.03;3.63;;;20.70;99.90;;;;;;5025685;28;20630;-59
2023/07/08 03:24:33;;;;;;;6.47;4.90;;;20.60;99.90;;;;;;5031560;28;20260;-59
2023/07/08 03:27:04;;;;;;;4.60;4.20;;;20.50;99.90;;;;;;5031373;28;20264;-59
2023/07/08 03:29:32;;;;;;;6.10;5.47;;;20.50;99.90;;;;;;5031242;28;20297;-59
2023/07/08 03:31:58;;;;;;;11.63;4.87;;;20.50;99.90;;;;;;5029447;28;20770;-60
2023/07/08 03:34:25;;;;;;;6.80;4.77;;;20.40;99.90;;;;;;5047927;22;20245;-53
2023/07/08 03:36:53;;;;;;;5.90;5.07;;;20.50;99.90;;;;;;5022138;28;20233;-52
2023/07/08 03:39:23;;;;;;;5.70;5.20;;;20.40;99.90;;;;;;5029233;28;20289;-53
2023/07/08 03:41:51;;;;;;;4.60;4.17;;;20.40;99.90;;;;;;5030162;28;20190;-53
2023/07/08 03:44:18;;;;;;;6.43;5.30;;;20.30;99.90;;;;;;5029144;28;20222;-53
2023/07/08 03:46:47;;;;;;;8.83;6.00;;;20.30;99.90;;;;;;5028161;28;20202;-53
2023/07/08 03:49:14;;;;;;;6.50;4.50;;;20.40;99.90;;;;;;5026163;28;20211;-52
2023/07/08 03:51:44;;;;;;;9.07;4.40;;;20.40;99.90;;;;;;5010407;28;20242;-53
2023/07/08 03:54:13;;;;;;;8.90;4.80;;;20.30;99.90;;;;;;5012538;28;20214;-53
2023/07/08 03:56:42;;;;;;;6.80;4.30;;;20.30;99.90;;;;;;5011039;28;20192;-50
2023/07/08 03:59:10;;;;;;;5.23;4.27;;;20.40;99.90;;;;;;5010833;28;20203;-50
2023/07/08 04:01:38;;;;;;;8.63;4.93;;;20.40;99.90;;;;;;5007307;28;20203;-50
2023/07/08 04:04:05;;;;;;;5.87;4.50;;;20.40;99.90;;;;;;5010036;28;20231;-51
2023/07/08 04:06:34;;;;;;;7.87;4.70;;;20.40;99.90;;;;;;5014377;28;20210;-50
2023/07/08 04:09:01;;;;;;;6.97;5.57;;;20.50;99.90;;;;;;5022199;28;20195;-50
2023/07/08 04:11:28;;;;;;;7.63;5.33;;;20.50;99.90;;;;;;5010880;28;20227;-50
2023/07/08 04:13:57;;;;;;;8.23;4.13;;;20.50;99.90;;;;;;5009921;28;20223;-50
2023/07/08 04:16:28;;;;;;;8.13;5.67;;;20.60;99.90;;;;;;5011099;28;20199;-50
2023/07/08 04:18:56;;;;;;;10.93;5.33;;;20.70;99.90;;;;;;5010564;28;20195;-51
2023/07/08 04:21:25;;;;;;;7.90;5.50;;;20.70;99.90;;;;;;5010097;28;20287;-51
2023/07/08 04:23:52;;;;;;;5.70;4.60;;;20.60;99.90;;;;;;5010140;28;20278;-50
2023/07/08 04:26:19;;;;;;;6.80;4.90;;;20.60;99.90;;;;;;5010428;28;20195;-51
2023/07/08 04:28:47;;;;;;;6.80;4.30;;;20.60;99.90;;;;;;5010759;28;20302;-51
2023/07/08 04:31:15;;;;;;;7.60;4.87;;;20.60;99.90;;;;;;5010100;28;20665;-51
2023/07/08 04:33:42;;;;;;;8.67;4.83;;;20.60;99.90;;;;;;5010680;28;20634;-51
2023/07/08 04:36:14;;;;;;;8.23;5.03;;;20.60;99.90;;;;;;5008564;28;20258;-51
2023/07/08 04:38:46;;;;;;;9.00;4.97;;;20.50;99.90;;;;;;5013834;28;20199;-51
2023/07/08 04:41:13;;;;;;;8.37;4.60;;;20.50;99.90;;;;;;5017751;28;20198;-51
2023/07/08 04:43:41;;;;;;;4.87;4.33;;;20.50;99.90;;;;;;5028814;28;20248;-51
2023/07/08 04:46:20;;;;;;;9.63;4.60;;;20.50;99.90;;;;;;5028836;28;20888;-51
2023/07/08 04:48:48;;;;;;;14.40;4.73;;;20.40;99.90;;;;;;5029328;28;20277;-50
2023/07/08 04:51:15;;;;;;;11.40;5.27;;;20.50;99.90;;;;;;5031435;28;20190;-50
2023/07/08 04:53:42;;;;;;;6.00;4.80;;;20.50;99.90;;;;;;5012981;28;20242;-51
2023/07/08 04:56:09;;;;;;;7.10;4.97;;;20.50;99.90;;;;;;5013763;28;20816;-51
2023/07/08 04:58:36;;;;;;;6.83;5.20;;;20.30;99.90;;;;;;5012554;28;20233;-51
2023/07/08 05:01:03;;;;;;;7.13;5.50;;;20.30;99.90;;;;;;5014744;28;20195;-51
2023/07/08 05:03:31;;;;;;;9.03;5.33;;;20.40;99.90;;;;;;5014281;28;20187;-51
2023/07/08 05:05:58;;;;;;;11.63;5.77;;;20.50;99.90;;;;;;5014278;28;20219;-51
2023/07/08 05:08:25;;;;;;;8.37;5.33;;;20.50;99.90;;;;;;5013697;28;20253;-51
2023/07/08 05:10:52;;;;;;;7.47;4.97;;;20.50;99.90;;;;;;5014495;28;20716;-51
2023/07/08 05:13:19;;;;;;;8.07;4.73;;;20.60;99.90;;;;;;5014593;28;20632;-51
2023/07/08 05:15:46;;;;;;;4.33;3.93;;;20.70;99.90;;;;;;5018061;28;20293;-51
2023/07/08 05:18:13;;;;;;;6.73;5.23;;;20.80;99.90;;;;;;5013979;28;20196;-51
2023/07/08 05:20:43;;;;;;;6.40;5.80;;;21.00;99.90;;;;;;5014564;28;20202;-50
2023/07/08 05:23:10;;;;;;;8.70;5.13;;;21.20;99.90;;;;;;5013332;28;20200;-51
2023/07/08 05:25:37;;;;;;;7.20;5.10;;;21.30;99.90;;;;;;5011072;28;20215;-51
2023/07/08 05:28:04;;;;;;;8.07;5.07;;;21.40;99.90;;;;;;5016966;28;20195;-51
2023/07/08 05:30:31;;;;;;;7.87;4.57;;;21.50;99.90;;;;;;5014308;28;20269;-51
2023/07/08 05:32:58;;;;;;;8.87;5.47;;;21.70;99.90;;;;;;5013458;28;20222;-52
2023/07/08 05:35:25;;;;;;;4.93;4.33;;;21.80;99.90;;;;;;5013405;28;20231;-51
2023/07/08 05:37:53;;;;;;;6.77;4.33;;;22.00;99.90;;;;;;5010353;28;20201;-52
2023/07/08 05:40:20;;;;;;;5.40;4.03;;;22.20;99.90;;;;;;5009769;28;20209;-51
2023/07/08 05:42:47;;;;;;;6.10;4.30;;;22.50;99.90;;;;;;5011899;28;20277;-51
2023/07/08 05:45:15;;;;;;;8.40;5.00;;;22.80;99.90;;;;;;5018824;28;20213;-51
2023/07/08 05:47:42;;;;;;;10.23;5.63;;;23.10;99.90;;;;;;5015780;28;20258;-51
2023/07/08 05:50:09;;;;;;;8.60;5.27;;;23.50;99.90;;;;;;5013869;28;20211;-60
2023/07/08 05:52:38;;;;;;;5.83;4.23;;;23.80;99.90;;;;;;5009870;28;20230;-61
2023/07/08 05:55:08;;;;;;;7.80;4.47;;;24.00;99.90;;;;;;5010148;28;20305;-60
2023/07/08 05:57:37;;;;;;;6.17;4.50;;;24.30;99.90;;;;;;5012633;28;20743;-60
2023/07/08 06:00:05;;;;;;;4.83;4.30;;;24.70;99.90;;;;;;5013164;28;20207;-51
2023/07/08 06:02:36;;;;;;;11.13;5.20;;;24.90;99.90;;;;;;5005719;28;20291;-52
2023/07/08 06:05:03;;;;;;;8.13;5.27;;;25.00;99.90;;;;;;5013600;28;20277;-51
2023/07/08 06:07:33;;;;;;;5.93;4.67;;;24.70;99.90;;;;;;5013093;28;20204;-52
2023/07/08 06:10:00;;;;;;;9.07;5.10;;;24.70;99.90;;;;;;5012879;28;20230;-51
2023/07/08 06:12:30;;;;;;;8.90;4.97;;;24.70;99.90;;;;;;5013092;28;20413;-52
2023/07/08 06:14:57;;;;;;;7.50;4.80;;;24.90;99.90;;;;;;5011251;28;20285;-52
2023/07/08 06:17:24;;;;;;;8.77;5.20;;;25.00;99.90;;;;;;5012792;28;20210;-52
2023/07/08 06:19:51;;;;;;;6.03;4.73;;;25.00;99.90;;;;;;5013024;28;20191;-56
2023/07/08 06:22:18;;;;;;;5.67;4.53;;;24.80;99.90;;;;;;5012963;28;20203;-57
2023/07/08 06:24:47;;;;;;;6.40;4.63;;;24.80;99.90;;;;;;5012521;28;20697;-57
2023/07/08 06:27:14;;;;;;;5.67;4.87;;;24.60;99.90;;;;;;5012812;28;20214;-58
2023/07/08 06:29:43;;;;;;;11.40;6.40;;;24.40;99.90;;;;;;5009282;28;20207;-57
2023/07/08 06:32:10;;;;;;;8.53;5.47;;;24.30;99.90;;;;;;5009787;28;20199;-57
2023/07/08 06:34:37;;;;;;;6.90;4.37;;;24.20;99.90;;;;;;5012816;28;20227;-59
2023/07/08 06:37:05;;;;;;;7.23;4.67;;;24.00;99.90;;;;;;5015790;28;20264;-58
2023/07/08 06:39:32;;;;;;;8.43;5.73;;;23.90;99.90;;;;;;5031831;28;20195;-58
2023/07/08 06:41:58;;;;;;;6.07;4.80;;;23.90;99.90;;;;;;5032354;28;20677;-59
2023/07/08 06:44:26;;;;;;;5.90;5.07;;;24.00;99.90;;;;;;5032464;28;20229;-59
2023/07/08 06:46:54;;;;;;;5.10;4.60;;;24.10;99.90;;;;;;5027907;28;20542;-59
2023/07/08 06:49:21;;;;;;;5.07;4.40;;;24.00;99.90;;;;;;5011312;28;20768;-60
2023/07/08 06:51:48;;;;;;;9.40;5.20;;;24.00;99.90;;;;;;5012532;28;20618;-62
2023/07/08 06:54:15;;;;;;;7.73;5.27;;;24.10;99.90;;;;;;5012179;28;20309;-60
2023/07/08 06:56:42;;;;;;;7.37;5.13;;;24.20;99.90;;;;;;5012039;28;20624;-61
2023/07/08 06:59:10;;;;;;;8.00;4.27;;;24.30;99.90;;;;;;5010710;28;20191;-60
2023/07/08 07:01:37;;;;;;;10.07;5.10;;;24.50;99.90;;;;;;5012103;28;20195;-60
2023/07/08 07:04:06;;;;;;;5.10;4.60;;;24.60;99.90;;;;;;5019321;28;20223;-60
2023/07/08 07:06:33;;;;;;;3.67;3.37;;;24.70;99.90;;;;;;5011963;28;20681;-62
2023/07/08 07:09:00;;;;;;;4.93;4.33;;;24.90;99.90;;;;;;5011975;28;20210;-61
2023/07/08 07:11:28;;;;;;;4.90;4.27;;;25.00;99.90;;;;;;5018595;28;20241;-61
2023/07/08 07:13:55;;;;;;;8.27;4.50;;;25.30;99.90;;;;;;5030440;28;20210;-61
2023/07/08 07:16:22;;;;;;;4.87;3.90;;;25.60;99.90;;;;;;5016080;28;20207;-61
2023/07/08 07:18:51;;;;;;;5.37;4.00;;;25.80;99.90;;;;;;4994164;28;20612;-60
2023/07/08 07:21:20;;;;;;;5.90;4.30;;;25.80;99.90;;;;;;5010818;28;20257;-62
2023/07/08 07:23:47;;;;;;;7.60;3.80;;;25.90;99.90;;;;;;5011507;28;20195;-62
2023/07/08 07:26:14;;;;;;;4.90;3.83;;;25.90;99.90;;;;;;5011599;28;20191;-61
2023/07/08 07:28:41;;;;;;;4.83;4.23;;;26.00;99.90;;;;;;5010191;28;20203;-60
2023/07/08 07:31:10;;;;;;;5.47;3.53;;;26.30;99.90;;;;;;5011679;28;20742;-60
2023/07/08 07:33:38;;;;;;;4.50;3.57;;;26.80;99.90;;;;;;5004179;28;20255;-60
2023/07/08 07:36:05;;;;;;;3.83;3.25;;;28.00;99.90;;;;;;4991902;28;20232;-62
2023/07/08 07:38:34;;;;;;;4.72;4.32;;;29.10;99.90;;;;;;5005983;28;20572;-62
2023/07/08 07:41:05;;;;;;;5.45;3.35;;;30.20;99.90;;;;;;5010680;28;20689;-62
2023/07/08 07:43:33;;;;;;;6.35;3.65;;;31.30;99.90;;;;;;5010077;28;20211;-52
2023/07/08 07:46:00;;;;;;;3.67;3.42;;;31.60;98.20;;;;;;5011940;28;20219;-52
2023/07/08 07:48:27;;;;;;;5.55;3.28;;;31.10;97.50;;;;;;5014634;28;20247;-52
2023/07/08 07:50:53;;;;;;;3.65;3.35;;;30.70;98.20;;;;;;5011340;28;20670;-52
2023/07/08 07:53:20;;;;;;;7.00;3.08;;;30.40;98.30;;;;;;5008970;28;20269;-52
2023/07/08 07:55:56;;;;;;;5.32;3.25;;;30.10;97.50;;;;;;5010862;28;20215;-52
2023/07/08 07:58:23;;;;;;;3.90;3.08;;;30.20;97.90;;;;;;5008724;28;20264;-52
2023/07/08 08:00:50;;;;;;;4.30;3.30;;;30.10;97.10;;;;;;5009397;28;20200;-52
2023/07/08 08:03:17;;;;;;;3.05;2.85;;;30.40;96.50;;;;;;5008301;28;20257;-52
2023/07/08 08:05:44;;;;;;;4.05;2.67;;;31.20;95.90;;;;;;5011586;28;20223;-52
2023/07/08 08:08:11;;;;;;;5.43;2.13;;;32.10;94.10;;;;;;5010837;28;20199;-52
2023/07/08 08:10:38;;;;;;;5.53;2.70;;;33.20;93.40;;;;;;5005719;28;20207;-52
2023/07/08 08:13:08;;;;;;;3.00;2.80;;;32.80;91.00;;;;;;5011186;28;20202;-53
2023/07/08 08:15:37;;;;;;;2.35;2.25;;;32.50;90.60;;;;;;5008462;28;20277;-53
2023/07/08 08:18:04;;;;;;;3.10;2.63;;;32.20;90.20;;;;;;5009794;28;20195;-52
2023/07/08 08:20:31;;;;;;;2.70;2.55;;;32.50;90.30;;;;;;5008516;28;20203;-53
2023/07/08 08:22:58;;;;;;;3.05;2.60;;;32.70;89.60;;;;;;5009448;28;20234;-53
2023/07/08 08:25:25;;;;;;;4.13;2.65;;;33.80;88.40;;;;;;5011803;28;20745;-53
2023/07/08 08:27:52;;;;;;;5.53;2.50;;;34.30;88.50;;;;;;5011817;28;20203;-53
2023/07/08 08:30:21;;;;;;;3.15;2.80;;;34.40;86.60;;;;;;5013503;28;20203;-53
2023/07/08 08:32:47;;;;;;;6.10;3.60;;;33.50;88.80;;;;;;5013037;28;20214;-52
2023/07/08 08:35:15;;;;;;;2.90;2.45;;;33.00;88.40;;;;;;5015072;28;20227;-52
2023/07/08 08:37:42;;;;;;;3.28;2.65;;;33.60;87.80;;;;;;5015344;28;20628;-52
2023/07/08 08:40:16;;;;;;;4.63;2.78;;;33.60;84.80;;;;;;5012056;28;20665;-52
2023/07/08 08:42:46;;;;;;;2.45;2.25;;;33.20;86.50;;;;;;5013130;28;20209;-52
2023/07/08 08:45:20;;;;;;;2.45;1.83;;;32.80;87.80;;;;;;5012741;28;20277;-52
2023/07/08 08:47:53;;;;;;;3.25;2.03;;;32.70;87.60;;;;;;5008759;28;20246;-52
2023/07/08 08:50:31;;;;;;;2.95;2.45;;;32.20;87.80;;;;;;5009595;28;20207;-52
2023/07/08 08:53:01;;;;;;;3.08;2.13;;;32.20;89.30;;;;;;5014071;28;20207;-52
2023/07/08 08:55:30;;;;;;;3.90;2.10;;;32.40;90.00;;;;;;5011182;28;20226;-52
2023/07/08 08:58:08;;;;;;;2.83;1.58;;;32.70;88.80;;;;;;5016159;28;20689;-52
2023/07/08 09:00:46;;;;;;;3.13;1.90;;;33.60;88.20;;;;;;5010977;28;20203;-52
2023/07/08 09:03:18;;;;;;;2.70;1.80;;;34.40;88.40;;;;;;5010955;28;20206;-52
2023/07/08 09:05:47;;;;;;;1.90;1.60;;;34.70;89.50;;;;;;5013245;28;20269;-53
2023/07/08 09:08:19;;;;;;;2.25;1.85;;;35.30;83.70;;;;;;5012014;28;21375;-53
2023/07/08 09:10:49;;;;;;;3.70;1.70;;;35.20;83.40;;;;;;5012762;28;20225;-52
2023/07/08 09:13:23;;;;;;;6.82;1.92;;;34.50;84.30;;;;;;5027085;28;20195;-52
2023/07/08 09:15:55;;;;;;;1.73;1.63;;;34.30;83.40;;;;;;5011683;28;20214;-52
2023/07/08 09:18:48;;;;;;;2.60;1.70;;;33.70;84.80;;;;;;5011467;28;20203;-52
2023/07/08 09:21:20;;;;;;;2.60;1.75;;;32.30;84.30;;;;;;5011486;28;20199;-53
2023/07/08 09:23:51;;;;;;;2.72;1.38;;;31.70;88.80;;;;;;5012681;28;20735;-52
2023/07/08 09:26:23;;;;;;;1.63;1.52;;;31.90;90.20;;;;;;5012868;28;20250;-53
2023/07/08 09:28:50;;;;;;;1.38;1.38;;;32.50;90.80;;;;;;5014442;28;20261;-52
2023/07/08 09:31:24;;;;;;;1.48;1.33;;;32.70;89.00;;;;;;5009252;28;20277;-53
2023/07/08 09:33:54;;;;;;;1.33;1.23;;;33.80;85.80;;;;;;5013463;28;20219;-52
2023/07/08 09:36:25;;;;;;;3.72;1.17;;;34.60;86.90;;;;;;5012947;28;20211;-53
2023/07/08 09:38:53;;;;;;;1.33;0.95;;;34.40;90.40;;;;;;5014006;28;20392;-53
2023/07/08 09:41:34;;;;;;;1.05;1.00;;;33.90;88.60;;;;;;5012686;28;20206;-62
2023/07/08 09:44:21;;;;;;;1.83;1.65;;;34.20;89.10;;;;;;5011599;28;20605;-60
2023/07/08 09:46:49;;;;;;;1.65;1.20;;;34.80;87.40;;;;;;5010917;28;20194;-59
2023/07/08 09:49:23;;;;;;;1.58;1.40;;;34.70;84.30;;;;;;5015976;28;20199;-60
2023/07/08 09:51:52;;;;;;;2.60;1.55;;;34.80;84.30;;;;;;5016819;28;20226;-61
2023/07/08 09:54:20;;;;;;;1.50;1.40;;;35.40;85.20;;;;;;5011915;28;20223;-61
2023/07/08 09:56:58;;;;;;;1.65;1.35;;;35.90;79.70;;;;;;5013509;28;20199;-60
2023/07/08 09:59:31;;;;;;;1.05;0.90;;;36.40;76.00;;;;;;5034390;22;20234;-63
2023/07/08 10:02:01;;;;;;;2.03;1.35;;;36.60;76.00;;;;;;5009585;28;20736;-64
2023/07/08 10:04:29;;;;;;;1.63;1.52;;;36.70;75.30;;;;;;5011839;28;20265;-63
2023/07/08 10:06:56;;;;;;;1.63;1.52;;;36.50;75.20;;;;;;5011795;28;20271;-62
2023/07/08 10:09:26;;;;;;;2.22;0.98;;;35.60;75.90;;;;;;5026607;28;20685;-64
2023/07/08 10:11:59;;;;;;;3.47;1.23;;;35.20;80.50;;;;;;5010471;28;20669;-64
2023/07/08 10:14:31;;;;;;;4.97;1.25;;;35.30;78.30;;;;;;5005412;28;20219;-68
2023/07/08 10:17:01;;;;;;;1.33;1.08;;;34.90;79.10;;;;;;4998116;28;20319;-66
2023/07/08 10:19:30;;;;;;;8.70;1.63;;;34.10;78.10;;;;;;5005444;28;20686;-67
2023/07/08 10:22:14;;;;;;;1.33;1.15;;;33.60;78.00;;;;;;5003313;28;20203;-68
2023/07/08 10:25:02;;;;;;;1.67;0.90;;;33.00;78.00;;;;;;5010613;28;20211;-67
2023/07/08 10:27:37;;;;;;;3.50;1.38;;;33.00;79.80;;;;;;4998011;28;20207;-56
2023/07/08 10:30:17;;;;;;;1.10;0.88;;;32.60;86.40;;;;;;5006160;28;20689;-56
2023/07/08 10:33:08;;;;;;;4.85;1.17;;;32.70;83.30;;;;;;5006788;28;20677;-57
2023/07/08 10:35:41;;;;;;;1.77;1.17;;;32.50;85.70;;;;;;5006455;28;20254;-55
2023/07/08 10:38:26;;;;;;;3.63;0.95;;;32.10;85.90;;;;;;5019091;28;20202;-55
2023/07/08 10:40:57;;;;;;;1.35;1.00;;;31.50;84.50;;;;;;5013483;28;20206;-56
2023/07/08 10:43:52;;;;;;;1.00;1.00;;;31.30;83.10;;;;;;5010905;28;20277;-55
2023/07/08 10:46:32;;;;;;;1.13;1.05;;;30.70;87.50;;;;;;5013069;28;20268;-65
2023/07/08 10:49:25;;;;;;;0.90;0.90;;;30.60;89.90;;;;;;5007366;28;20235;-64
2023/07/08 10:52:06;;;;;;;1.77;1.50;;;30.40;90.00;;;;;;5006050;28;20635;-65
2023/07/08 10:54:45;;;;;;;1.10;1.00;;;30.10;90.00;;;;;;4998348;28;20230;-63
2023/07/08 10:57:28;;;;;;;0.90;0.90;;;30.00;90.90;;;;;;4995587;28;20202;-64
2023/07/08 11:00:03;;;;;;;1.10;1.00;;;30.20;90.30;;;;;;4999992;28;20274;-64
2023/07/08 11:02:56;;;;;;;1.88;1.27;;;30.80;92.10;;;;;;5009386;28;20221;-60
2023/07/08 11:05:31;;;;;;;1.25;1.15;;;31.40;90.30;;;;;;5006965;28;20695;-64
2023/07/08 11:08:05;;;;;;;1.02;1.02;;;31.30;90.00;;;;;;4991562;28;20697;-60
2023/07/08 11:10:39;;;;;;;1.13;0.98;;;31.00;89.90;;;;;;5016084;28;20206;-63
2023/07/08 11:13:13;;;;;;;4.70;1.20;;;30.50;90.30;;;;;;5029811;28;20230;-65
2023/07/08 11:15:46;;;;;;;0.63;0.63;;;30.10;91.40;;;;;;5020420;28;20215;-65
2023/07/08 11:18:20;;;;;;;0.70;0.70;;;30.00;91.30;;;;;;5009590;28;20218;-55
2023/07/08 11:20:57;;;;;;;1.52;1.40;;;30.10;93.10;;;;;;5009964;28;20233;-63
2023/07/08 11:23:33;;;;;;;2.42;0.93;;;30.00;93.00;;;;;;5015285;28;20249;-65
2023/07/08 11:26:15;;;;;;;1.58;1.48;;;30.20;92.60;;;;;;5017761;28;20198;-66
2023/07/08 11:28:42;;;;;;;1.48;1.38;;;30.40;93.00;;;;;;5017867;28;20230;-66
2023/07/08 11:31:11;;;;;;;1.95;1.13;;;30.10;93.70;;;;;;5001666;28;20210;-62
2023/07/08 11:33:39;;;;;;;0.95;0.95;;;29.90;92.90;;;;;;5009046;28;20258;-64
2023/07/08 11:36:08;;;;;;;2.47;0.90;;;29.50;93.00;;;;;;5010976;28;20374;-64
2023/07/08 11:38:38;;;;;;;1.30;0.80;;;29.20;94.40;;;;;;5003007;28;20219;-63
2023/07/08 11:41:14;;;;;;;2.00;1.10;;;28.90;94.60;;;;;;5009922;28;20203;-64
2023/07/08 11:43:48;;;;;;;3.55;1.35;;;28.70;95.20;;;;;;5009134;28;20203;-63
2023/07/08 11:46:19;;;;;;;12.20;9.57;;;28.60;95.00;;;;;;5004799;28;20257;-65
2023/07/08 11:48:49;;;;;;;4.07;3.78;;;28.40;95.60;;;;;;5010936;28;20265;-66
2023/07/08 11:51:20;;;;;;;2.30;2.05;;;28.60;96.00;;;;;;5013551;28;20720;-70
2023/07/08 11:53:59;;;;;;;0.90;0.90;;;28.50;97.00;;;;;;5011953;28;20257;-68
2023/07/08 11:56:26;;;;;;;0.90;0.90;;;28.80;95.80;;;;;;5007058;28;20223;-64
2023/07/08 11:59:05;;;;;;;3.53;0.82;;;29.00;96.40;;;;;;5007978;28;20293;-66
2023/07/08 12:01:39;;;;;;;2.05;1.20;;;29.30;95.10;;;;;;5017927;28;20202;-68
2023/07/08 12:04:23;;;;;;;0.70;0.70;;;29.50;94.50;;;;;;5024894;28;20198;-69
2023/07/08 12:06:58;;;;;;;2.15;1.67;;;29.30;95.80;;;;;;5015024;28;20207;-67
2023/07/08 12:09:35;;;;;;;2.67;1.20;;;29.30;94.60;;;;;;5012376;28;20250;-66
2023/07/08 12:12:06;;;;;;;1.88;1.27;;;29.10;95.20;;;;;;5020730;28;20213;-65
2023/07/08 12:14:33;;;;;;;3.17;1.10;;;28.90;93.70;;;;;;5029062;28;20264;-55
2023/07/08 12:17:00;;;;;;;1.40;1.27;;;28.70;94.00;;;;;;5025955;28;20291;-55
2023/07/08 12:19:31;;;;;;;1.35;1.20;;;28.60;94.90;;;;;;4994889;28;20298;-54
2023/07/08 12:21:58;;;;;;;5.78;1.45;;;28.80;95.70;;;;;;5020478;28;20293;-54
2023/07/08 12:24:27;;;;;;;93.18;7.65;;;28.80;95.10;;;;;;5022275;28;20230;-55
2023/07/08 12:26:55;;;;;;;42.65;5.25;;;28.80;95.10;;;;;;5016759;28;20222;-55
2023/07/08 12:29:22;;;;;;;1.55;1.30;;;28.80;94.30;;;;;;5017856;28;20286;-54
2023/07/08 12:31:51;;;;;;;438.90;50.75;;;28.50;93.40;;;;;;5004064;28;20627;-54
2023/07/08 12:34:19;;;;;;;54.47;7.45;;;28.50;94.80;;;;;;5012331;28;20195;-54
2023/07/08 12:36:47;;;;;;;1.75;1.63;;;28.60;94.60;;;;;;5013921;28;20253;-55
2023/07/08 12:39:16;;;;;;;4.85;1.27;;;28.50;92.40;;;;;;5011898;28;20301;-55
2023/07/08 12:41:45;;;;;;;4.15;1.77;;;28.60;93.30;;;;;;5017781;28;20210;-54
2023/07/08 12:44:22;;;;;;;2.28;1.55;;;28.70;92.70;;;;;;5012987;28;20196;-55
2023/07/08 12:46:52;;;;;;;1.10;1.05;;;28.50;93.80;;;;;;5019369;28;20249;-55
2023/07/08 12:49:26;;;;;;;20.27;5.85;;;28.60;94.10;;;;;;5003932;28;20225;-55
2023/07/08 12:51:53;;;;;;;2.03;1.92;;;28.80;94.20;;;;;;5007411;28;20285;-55
2023/07/08 12:54:21;;;;;;;2.03;1.75;;;28.90;92.60;;;;;;5009964;28;20677;-55
2023/07/08 12:56:49;;;;;;;3.50;1.35;;;28.90;92.50;;;;;;5010104;28;20188;-54
2023/07/08 12:59:22;;;;;;;1.85;1.25;;;28.80;91.60;;;;;;4995684;28;20274;-54